Time;durP1;ratioP1;P1;durP2;ratioP2;P2;SDS_P1;SDS_P2;PMS_P1;PMS_P2;Temp;Humidity;BMP_temperature;BMP_pressure;BME280_temperature;BME280_humidity;BME280_pressure;Samples;Min_cycle;Max_cycle;Signal;HPM_P1;HPM_P2
2022/01/11 00:01:23;;;;;;;6.45;4.82;;;22.30;37.30;;;;;;6258494;27;80741;-63
2022/01/11 00:04:29;;;;;;;7.07;5.50;;;22.30;37.50;;;;;;6259080;27;81637;-62
2022/01/11 00:07:31;;;;;;;6.50;4.32;;;22.20;37.40;;;;;;6253115;27;84953;-63
2022/01/11 00:10:35;;;;;;;6.68;4.80;;;22.20;37.20;;;;;;6245892;27;81332;-62
2022/01/11 00:13:35;;;;;;;8.70;4.43;;;22.30;37.60;;;;;;6257912;27;80512;-62
2022/01/11 00:16:36;;;;;;;8.18;5.07;;;22.30;36.60;;;;;;6256144;27;81409;-62
2022/01/11 00:19:36;;;;;;;6.90;4.70;;;22.30;36.40;;;;;;6268898;27;80377;-62
2022/01/11 00:22:49;;;;;;;7.50;4.80;;;22.30;36.50;;;;;;6258652;27;81651;-63
2022/01/11 00:25:50;;;;;;;7.80;4.90;;;22.30;36.30;;;;;;6258341;27;82099;-62
2022/01/11 00:28:50;;;;;;;8.80;5.22;;;22.30;36.20;;;;;;6257861;27;83495;-62
2022/01/11 00:32:05;;;;;;;7.80;5.22;;;22.30;36.10;;;;;;6256654;27;82848;-62
2022/01/11 00:35:10;;;;;;;;;;;22.30;36.40;;;;;;6255231;27;83163;-62
2022/01/11 00:38:13;;;;;;;8.50;5.35;;;22.30;36.40;;;;;;6264687;27;80239;-62
2022/01/11 00:41:14;;;;;;;11.65;4.68;;;22.30;36.00;;;;;;6258552;27;80045;-62
2022/01/11 00:44:15;;;;;;;7.95;4.97;;;22.30;36.40;;;;;;6258331;27;81283;-62
2022/01/11 00:47:15;;;;;;;6.60;4.57;;;22.30;36.50;;;;;;6255590;27;80933;-62
2022/01/11 00:50:17;;;;;;;7.93;5.00;;;22.20;36.50;;;;;;6259329;27;83848;-62
2022/01/11 00:53:18;;;;;;;8.57;5.53;;;22.30;36.50;;;;;;6257309;27;80994;-62
2022/01/11 00:56:19;;;;;;;6.45;4.90;;;22.20;36.60;;;;;;6251125;27;80710;-61
2022/01/11 00:59:19;;;;;;;7.30;5.03;;;22.20;36.70;;;;;;6259229;27;83401;-62
2022/01/11 01:02:20;;;;;;;9.02;4.95;;;22.20;36.70;;;;;;6255846;27;80376;-62
2022/01/11 01:05:21;;;;;;;7.40;5.10;;;22.20;36.70;;;;;;6256431;27;80950;-62
2022/01/11 01:08:22;;;;;;;6.25;4.80;;;22.20;36.70;;;;;;6255160;27;82898;-62
2022/01/11 01:11:23;;;;;;;8.07;5.30;;;22.20;36.60;;;;;;6258184;27;80379;-62
2022/01/11 01:14:24;;;;;;;8.07;4.85;;;22.20;36.60;;;;;;6255004;27;83487;-62
2022/01/11 01:17:26;;;;;;;9.18;5.70;;;22.20;36.50;;;;;;6255271;27;83196;-62
2022/01/11 01:20:27;;;;;;;6.65;4.75;;;22.20;36.70;;;;;;6256089;28;81652;-63
2022/01/11 01:23:27;;;;;;;7.97;5.32;;;22.20;36.90;;;;;;6259930;28;83405;-63
2022/01/11 01:26:28;;;;;;;8.30;5.47;;;22.20;36.60;;;;;;6260165;27;80405;-63
2022/01/11 01:29:28;;;;;;;8.57;5.32;;;22.20;36.80;;;;;;6245846;28;83551;-62
2022/01/11 01:32:29;;;;;;;7.03;4.95;;;22.20;36.50;;;;;;6259138;27;81207;-62
2022/01/11 01:35:34;;;;;;;7.03;5.22;;;22.20;36.60;;;;;;6261799;27;80474;-62
2022/01/11 01:38:34;;;;;;;8.63;5.60;;;22.20;36.60;;;;;;6261419;27;81591;-62
2022/01/11 01:41:35;;;;;;;7.82;5.30;;;22.20;36.50;;;;;;6257485;27;80374;-62
2022/01/11 01:44:36;;;;;;;8.20;5.30;;;22.20;36.10;;;;;;6261185;27;80883;-62
2022/01/11 01:47:36;;;;;;;7.78;5.30;;;22.20;35.90;;;;;;6261347;27;81527;-62
2022/01/11 01:50:37;;;;;;;7.68;5.15;;;22.20;35.70;;;;;;6259856;27;80269;-62
2022/01/11 01:53:37;;;;;;;8.98;5.70;;;22.20;35.70;;;;;;6258273;27;82938;-62
2022/01/11 01:56:38;;;;;;;8.38;5.63;;;22.20;35.60;;;;;;6258986;27;84379;-62
2022/01/11 01:59:38;;;;;;;8.27;5.32;;;22.20;35.60;;;;;;6260081;27;83065;-61
2022/01/11 02:02:39;;;;;;;7.45;4.75;;;22.20;35.70;;;;;;6259307;28;83187;-62
2022/01/11 02:05:39;;;;;;;7.68;5.30;;;22.20;35.50;;;;;;6258820;28;82543;-61
2022/01/11 02:08:40;;;;;;;6.78;4.70;;;22.20;35.50;;;;;;6260535;27;80606;-61
2022/01/11 02:11:40;;;;;;;7.28;5.07;;;22.20;35.80;;;;;;6266436;27;84021;-61
2022/01/11 02:14:41;;;;;;;6.07;4.43;;;22.20;36.10;;;;;;6260730;27;82387;-62
2022/01/11 02:17:42;;;;;;;6.93;4.93;;;22.20;36.10;;;;;;6259484;27;87505;-62
2022/01/11 02:20:44;;;;;;;7.63;4.85;;;22.20;36.60;;;;;;6258360;28;82011;-61
2022/01/11 02:23:49;;;;;;;7.43;5.03;;;22.20;36.10;;;;;;6241364;28;83273;-61
2022/01/11 02:26:51;;;;;;;7.28;4.47;;;22.10;36.20;;;;;;6251573;28;83684;-61
2022/01/11 02:29:51;;;;;;;6.93;4.55;;;22.10;36.00;;;;;;6246264;28;81734;-62
2022/01/11 02:32:52;;;;;;;7.28;4.60;;;22.10;36.20;;;;;;6257118;28;83139;-61
2022/01/11 02:35:55;;;;;;;6.72;4.40;;;22.10;36.10;;;;;;6257851;28;83057;-62
2022/01/11 02:38:56;;;;;;;7.53;5.15;;;22.10;36.20;;;;;;6259856;27;81807;-62
2022/01/11 02:41:56;;;;;;;6.05;4.07;;;22.10;36.20;;;;;;6244245;28;82497;-62
2022/01/11 02:45:03;;;;;;;7.50;4.72;;;22.10;36.20;;;;;;6258301;28;83402;-62
2022/01/11 02:48:08;;;;;;;7.33;4.70;;;22.10;36.20;;;;;;6256897;28;82166;-62
2022/01/11 02:51:10;;;;;;;7.50;4.88;;;22.10;36.40;;;;;;6258879;28;82689;-62
2022/01/11 02:54:11;;;;;;;6.15;4.47;;;22.10;36.20;;;;;;6258116;27;83512;-62
2022/01/11 02:57:12;;;;;;;7.80;4.78;;;22.10;36.30;;;;;;6257163;27;83229;-62
2022/01/11 03:00:12;;;;;;;5.97;4.30;;;22.10;36.40;;;;;;6261994;27;80188;-62
2022/01/11 03:03:13;;;;;;;6.07;4.35;;;22.10;36.40;;;;;;6260164;27;80655;-62
2022/01/11 03:06:14;;;;;;;5.47;3.95;;;22.10;36.10;;;;;;6258534;28;83189;-62
2022/01/11 03:09:15;;;;;;;6.47;4.63;;;22.10;36.00;;;;;;6256017;28;80610;-63
2022/01/11 03:12:15;;;;;;;8.80;4.60;;;22.10;36.20;;;;;;6248363;28;82943;-62
2022/01/11 03:15:16;;;;;;;6.50;4.82;;;22.10;35.60;;;;;;6254239;27;83532;-62
2022/01/11 03:18:19;;;;;;;8.52;5.55;;;22.10;35.10;;;;;;6263985;27;82090;-62
2022/01/11 03:21:21;;;;;;;9.05;5.10;;;22.20;35.00;;;;;;6255859;27;83156;-63
2022/01/11 03:24:22;;;;;;;8.48;4.95;;;22.20;34.80;;;;;;6254283;28;82350;-63
2022/01/11 03:27:23;;;;;;;8.18;4.95;;;22.30;34.80;;;;;;6257115;28;81859;-62
2022/01/11 03:30:24;;;;;;;6.68;4.47;;;22.40;35.30;;;;;;6254735;28;83843;-62
2022/01/11 03:33:28;;;;;;;7.50;4.93;;;22.40;34.90;;;;;;6257197;28;82392;-62
2022/01/11 03:36:29;;;;;;;8.23;5.10;;;22.50;34.90;;;;;;6257084;28;83297;-62
2022/01/11 03:39:30;;;;;;;6.65;4.32;;;22.50;34.80;;;;;;6258746;27;80761;-62
2022/01/11 03:42:32;;;;;;;6.25;4.40;;;22.60;34.70;;;;;;6256435;28;82242;-62
2022/01/11 03:45:36;;;;;;;6.95;5.05;;;22.60;34.60;;;;;;6257316;28;83397;-62
2022/01/11 03:48:40;;;;;;;6.32;4.22;;;22.60;34.50;;;;;;6247621;27;82743;-62
2022/01/11 03:51:41;;;;;;;6.60;4.20;;;22.70;34.40;;;;;;6256237;28;83264;-61
2022/01/11 03:55:10;;;;;;;6.38;4.30;;;22.70;34.40;;;;;;6256090;27;83540;-62
2022/01/11 03:58:11;;;;;;;5.95;4.22;;;22.70;34.30;;;;;;6257109;28;83143;-61
2022/01/11 04:01:11;;;;;;;6.00;4.07;;;22.80;34.20;;;;;;6256851;28;83374;-62
2022/01/11 04:04:12;;;;;;;7.22;4.30;;;22.80;34.30;;;;;;6257190;27;83229;-61
2022/01/11 04:07:13;;;;;;;4.82;4.20;;;22.80;34.10;;;;;;6256199;28;83236;-61
2022/01/11 04:10:14;;;;;;;6.47;4.53;;;22.80;34.10;;;;;;6256211;28;82926;-61
2022/01/11 04:13:15;;;;;;;5.85;3.95;;;22.90;34.10;;;;;;6256687;28;83193;-61
2022/01/11 04:16:15;;;;;;;6.03;4.22;;;22.80;33.90;;;;;;6258401;27;80570;-61
2022/01/11 04:19:16;;;;;;;4.65;4.00;;;22.90;34.00;;;;;;6258250;27;80577;-61
2022/01/11 04:22:16;;;;;;;5.10;3.90;;;22.90;33.90;;;;;;6264080;27;80764;-61
2022/01/11 04:25:17;;;;;;;8.38;4.80;;;22.90;34.00;;;;;;6255676;28;83102;-61
2022/01/11 04:28:18;;;;;;;4.88;4.10;;;23.00;33.90;;;;;;6254585;28;82526;-61
2022/01/11 04:31:19;;;;;;;4.82;3.95;;;22.90;33.80;;;;;;6253583;28;82487;-62
2022/01/11 04:34:21;;;;;;;6.30;4.43;;;23.00;33.80;;;;;;6246929;28;81907;-62
2022/01/11 04:37:21;;;;;;;6.20;4.28;;;23.00;33.60;;;;;;6237515;28;82844;-62
2022/01/11 04:40:22;;;;;;;5.55;3.97;;;23.00;33.50;;;;;;6255625;28;83021;-63
2022/01/11 04:43:23;;;;;;;6.25;4.57;;;23.00;33.30;;;;;;6252703;27;81892;-62
2022/01/11 04:46:25;;;;;;;6.82;4.50;;;23.00;33.20;;;;;;6255429;27;82941;-62
2022/01/11 04:49:29;;;;;;;8.05;4.63;;;23.00;33.10;;;;;;6254327;27;87267;-63
2022/01/11 04:52:29;;;;;;;5.45;4.28;;;23.00;33.00;;;;;;6255279;27;83831;-63
2022/01/11 04:55:31;;;;;;;5.75;4.65;;;23.00;33.00;;;;;;6255183;27;83155;-62
2022/01/11 04:58:32;;;;;;;6.65;4.72;;;23.10;32.90;;;;;;6254540;27;84443;-63
2022/01/11 05:01:33;;;;;;;5.72;4.30;;;23.10;32.80;;;;;;6247618;27;80848;-63
2022/01/11 05:04:33;;;;;;;5.72;4.03;;;23.10;32.70;;;;;;6252300;27;81570;-63
2022/01/11 05:07:34;;;;;;;7.72;4.50;;;23.10;32.60;;;;;;6254945;27;83468;-62
2022/01/11 05:10:35;;;;;;;5.95;4.35;;;23.10;32.50;;;;;;6255203;27;83316;-65
2022/01/11 05:13:36;;;;;;;6.78;4.70;;;23.10;32.40;;;;;;6252817;27;83114;-64
2022/01/11 05:16:43;;;;;;;7.35;4.70;;;23.10;32.20;;;;;;6248769;27;83285;-64
2022/01/11 05:19:43;;;;;;;6.57;4.43;;;23.20;32.30;;;;;;6253547;27;83310;-63
2022/01/11 05:22:47;;;;;;;4.95;4.18;;;23.20;32.80;;;;;;6255298;27;80474;-64
2022/01/11 05:25:47;;;;;;;6.93;4.93;;;23.20;32.70;;;;;;6256639;27;80355;-64
2022/01/11 05:28:48;;;;;;;5.88;4.60;;;23.20;32.90;;;;;;6254055;27;83201;-64
2022/01/11 05:31:49;;;;;;;5.60;4.50;;;23.20;33.70;;;;;;6255727;27;82947;-63
2022/01/11 05:34:49;;;;;;;5.97;4.10;;;23.30;33.50;;;;;;6255627;27;81927;-66
2022/01/11 05:37:50;;;;;;;11.07;6.88;;;23.30;33.00;;;;;;6253217;27;83071;-64
2022/01/11 05:40:51;;;;;;;79.53;39.47;;;23.20;34.00;;;;;;6231699;27;83353;-65
2022/01/11 05:43:53;;;;;;;144.65;70.95;;;23.10;35.80;;;;;;6253552;27;83272;-65
2022/01/11 05:46:54;;;;;;;139.45;67.65;;;23.00;37.40;;;;;;6247708;27;85918;-66
2022/01/11 05:49:55;;;;;;;105.18;50.63;;;23.00;38.10;;;;;;6252038;27;84402;-65
2022/01/11 05:52:55;;;;;;;80.85;40.45;;;23.10;38.30;;;;;;6246716;28;85899;-65
2022/01/11 05:55:56;;;;;;;57.97;26.33;;;23.10;39.00;;;;;;6238574;27;86085;-65
2022/01/11 05:58:57;;;;;;;89.82;45.05;;;23.00;39.90;;;;;;6250233;27;85125;-64
2022/01/11 06:01:58;;;;;;;171.60;83.00;;;23.00;40.60;;;;;;6245235;27;85391;-63
2022/01/11 06:04:59;;;;;;;199.30;98.25;;;22.80;41.00;;;;;;6251913;27;86261;-65
2022/01/11 06:08:00;;;;;;;161.00;77.22;;;22.80;41.50;;;;;;6253389;27;84122;-65
2022/01/11 06:11:00;;;;;;;124.80;60.28;;;22.90;42.50;;;;;;6240606;27;86184;-65
2022/01/11 06:14:03;;;;;;;95.68;47.13;;;22.90;42.20;;;;;;6256715;27;84224;-64
2022/01/11 06:17:04;;;;;;;81.57;39.20;;;23.00;42.30;;;;;;6253350;27;85652;-65
2022/01/11 06:20:05;;;;;;;66.15;29.80;;;22.90;42.10;;;;;;6256474;27;86028;-66
2022/01/11 06:23:06;;;;;;;48.05;25.65;;;22.90;42.50;;;;;;6253943;27;85692;-70
2022/01/11 06:26:06;;;;;;;47.35;25.17;;;22.90;42.30;;;;;;6255008;27;85136;-67
2022/01/11 06:29:07;;;;;;;49.45;21.65;;;22.90;41.50;;;;;;6248201;28;86015;-66
2022/01/11 06:32:08;;;;;;;43.70;20.10;;;22.90;40.60;;;;;;6250027;27;84154;-66
2022/01/11 06:35:09;;;;;;;38.10;18.60;;;22.90;40.00;;;;;;6255848;27;85741;-67
2022/01/11 06:38:09;;;;;;;37.38;19.35;;;22.80;39.10;;;;;;6255506;27;84521;-68
2022/01/11 06:41:10;;;;;;;43.00;20.15;;;22.90;39.20;;;;;;6253805;28;85746;-67
2022/01/11 06:44:13;;;;;;;33.25;16.77;;;22.90;38.70;;;;;;6240152;27;85876;-67
2022/01/11 06:47:15;;;;;;;30.50;16.50;;;22.80;37.90;;;;;;6255545;27;85963;-68
2022/01/11 06:50:16;;;;;;;28.00;14.80;;;22.80;37.70;;;;;;6255733;27;85897;-68
2022/01/11 06:53:18;;;;;;;34.05;16.05;;;22.70;37.40;;;;;;6251957;27;85803;-67
2022/01/11 06:56:24;;;;;;;27.40;14.88;;;22.70;37.00;;;;;;6244946;27;84112;-67
2022/01/11 06:59:29;;;;;;;26.63;13.85;;;22.70;36.20;;;;;;6252414;27;84427;-65
2022/01/11 07:02:35;;;;;;;27.65;13.70;;;22.70;35.60;;;;;;6261808;27;84332;-65
2022/01/11 07:05:55;;;;;;;19.63;11.52;;;22.60;35.50;;;;;;6240404;28;83623;-65
2022/01/11 07:08:56;;;;;;;19.90;11.23;;;22.60;34.80;;;;;;6254493;27;84652;-65
2022/01/11 07:12:01;;;;;;;22.40;11.13;;;22.60;34.60;;;;;;6252659;27;84282;-65
2022/01/11 07:15:02;;;;;;;20.23;10.85;;;22.60;34.50;;;;;;6254958;27;85736;-66
2022/01/11 07:18:08;;;;;;;21.05;11.27;;;22.60;34.20;;;;;;6253470;27;85626;-66
2022/01/11 07:21:09;;;;;;;18.27;10.27;;;22.60;34.10;;;;;;6250725;27;85886;-67
2022/01/11 07:24:09;;;;;;;23.85;9.70;;;22.60;33.70;;;;;;6249899;27;85221;-67
2022/01/11 07:27:11;;;;;;;19.30;9.85;;;22.50;33.90;;;;;;6235920;28;85588;-66
2022/01/11 07:30:11;;;;;;;17.42;9.25;;;22.50;34.00;;;;;;6256513;27;81887;-66
2022/01/11 07:33:22;;;;;;;16.88;9.15;;;22.50;34.00;;;;;;6254726;28;83252;-65
2022/01/11 07:36:25;;;;;;;21.33;10.38;;;22.50;34.50;;;;;;6256202;27;81597;-66
2022/01/11 07:39:31;;;;;;;19.42;9.52;;;22.50;34.50;;;;;;6253691;28;83109;-65
2022/01/11 07:42:31;;;;;;;15.15;8.93;;;22.50;34.30;;;;;;6254754;28;85825;-65
2022/01/11 07:45:47;;;;;;;14.63;9.10;;;22.50;34.50;;;;;;6256233;27;86761;-66
2022/01/11 07:48:51;;;;;;;15.48;8.98;;;22.40;34.50;;;;;;6249582;27;82026;-67
2022/01/11 07:51:51;;;;;;;16.83;9.15;;;22.40;34.60;;;;;;6239761;27;83516;-67
2022/01/11 07:54:52;;;;;;;17.40;8.38;;;22.40;34.80;;;;;;6253749;27;81880;-71
2022/01/11 07:57:56;;;;;;;15.43;9.05;;;22.40;35.20;;;;;;6255900;27;83278;-71
2022/01/11 08:00:57;;;;;;;15.63;9.13;;;22.30;34.40;;;;;;6256477;27;82320;-71
2022/01/11 08:04:04;;;;;;;18.35;9.02;;;22.20;33.60;;;;;;6256282;27;82514;-73
2022/01/11 08:07:11;;;;;;;17.88;8.93;;;22.10;33.70;;;;;;6256435;27;83126;-68
2022/01/11 08:10:29;;;;;;;14.93;8.70;;;22.00;33.20;;;;;;6246710;27;80590;-68
2022/01/11 08:13:32;;;;;;;16.70;8.45;;;21.90;32.40;;;;;;6256021;27;83126;-68
2022/01/11 08:16:32;;;;;;;19.35;9.55;;;21.80;31.70;;;;;;6255145;27;81682;-67
2022/01/11 08:19:33;;;;;;;13.88;8.18;;;21.70;31.10;;;;;;6256652;27;82610;-72
2022/01/11 08:22:35;;;;;;;15.98;9.07;;;21.60;31.00;;;;;;6256684;27;82976;-72
2022/01/11 08:25:35;;;;;;;15.23;8.82;;;21.60;31.40;;;;;;6253599;27;81695;-72
2022/01/11 08:28:36;;;;;;;14.35;8.88;;;21.50;30.90;;;;;;6255187;27;83699;-72
2022/01/11 08:31:39;;;;;;;13.75;8.70;;;21.50;30.90;;;;;;6234977;27;82633;-72
2022/01/11 08:34:40;;;;;;;13.18;8.95;;;21.50;30.60;;;;;;6257071;27;80486;-72
2022/01/11 08:37:42;;;;;;;12.85;8.25;;;21.40;30.60;;;;;;6253444;27;82855;-66
2022/01/11 08:40:44;;;;;;;13.10;8.40;;;21.40;30.20;;;;;;6254068;27;83470;-68
2022/01/11 08:43:46;;;;;;;15.00;9.05;;;21.30;30.00;;;;;;6253046;28;82896;-68
2022/01/11 08:46:47;;;;;;;14.77;8.75;;;21.10;29.90;;;;;;6253941;28;83373;-66
2022/01/11 08:49:54;;;;;;;15.60;8.50;;;21.10;30.10;;;;;;6256169;28;82731;-67
2022/01/11 08:52:54;;;;;;;12.75;6.72;;;21.20;30.30;;;;;;6239770;28;81741;-67
2022/01/11 08:55:57;;;;;;;9.25;6.50;;;21.30;30.30;;;;;;6245922;28;82211;-69
2022/01/11 08:58:58;;;;;;;11.85;6.80;;;21.40;30.50;;;;;;6247740;28;82869;-68
2022/01/11 09:02:04;;;;;;;11.85;6.93;;;21.50;30.50;;;;;;6242977;28;82055;-69
2022/01/11 09:05:06;;;;;;;8.32;5.60;;;21.50;30.60;;;;;;6255495;27;81650;-68
2022/01/11 09:08:11;;;;;;;9.15;5.68;;;21.60;30.90;;;;;;6239593;28;83393;-69
2022/01/11 09:11:12;;;;;;;10.25;5.82;;;21.60;31.00;;;;;;6261545;27;83217;-69
2022/01/11 09:14:15;;;;;;;7.90;5.32;;;21.60;31.10;;;;;;6254640;27;80990;-66
2022/01/11 09:17:16;;;;;;;9.05;5.35;;;21.70;31.20;;;;;;6256463;27;81997;-67
2022/01/11 09:20:17;;;;;;;8.43;5.30;;;21.70;31.20;;;;;;6242308;27;83422;-66
2022/01/11 09:23:19;;;;;;;10.32;5.38;;;21.70;31.20;;;;;;6242815;28;82327;-66
2022/01/11 09:26:20;;;;;;;6.30;4.22;;;21.70;31.50;;;;;;6254211;28;83246;-66
2022/01/11 09:29:26;;;;;;;12.07;5.53;;;21.80;31.70;;;;;;6254657;28;82337;-67
2022/01/11 09:32:27;;;;;;;8.15;4.85;;;21.80;31.60;;;;;;6255395;27;80685;-68
2022/01/11 09:35:30;;;;;;;10.10;5.45;;;21.80;31.70;;;;;;6251209;27;81949;-70
2022/01/11 09:38:43;;;;;;;7.68;5.10;;;21.80;31.70;;;;;;6229767;27;82134;-66
2022/01/11 09:41:44;;;;;;;7.57;5.03;;;21.80;31.80;;;;;;6259012;27;80667;-65
2022/01/11 09:44:47;;;;;;;6.93;4.65;;;21.80;31.70;;;;;;6258066;27;83224;-66
2022/01/11 09:47:49;;;;;;;9.93;5.93;;;21.80;32.20;;;;;;6255031;27;82950;-66
2022/01/11 09:50:52;;;;;;;9.75;5.72;;;21.80;32.00;;;;;;6257505;27;82605;-66
2022/01/11 09:53:53;;;;;;;9.80;5.20;;;21.90;32.10;;;;;;6257167;27;83004;-66
2022/01/11 09:56:54;;;;;;;8.40;4.97;;;22.00;31.80;;;;;;6258995;28;81525;-65
2022/01/11 09:59:56;;;;;;;10.38;6.00;;;22.10;32.50;;;;;;6257089;28;83405;-64
2022/01/11 10:03:29;;;;;;;8.38;5.28;;;22.10;32.10;;;;;;6260536;27;81154;-65
2022/01/11 10:06:42;;;;;;;10.20;5.20;;;22.10;32.20;;;;;;6257971;27;86155;-67
2022/01/11 10:09:42;;;;;;;8.27;4.85;;;22.10;32.30;;;;;;6253139;27;83413;-67
2022/01/11 10:12:43;;;;;;;9.88;5.53;;;22.10;32.60;;;;;;6257767;27;81463;-67
2022/01/11 10:15:44;;;;;;;8.02;5.65;;;22.10;32.70;;;;;;6247871;27;83001;-68
2022/01/11 10:18:54;;;;;;;9.57;5.28;;;22.10;32.50;;;;;;6254333;27;81962;-67
2022/01/11 10:21:55;;;;;;;10.15;5.60;;;22.10;32.60;;;;;;6248840;27;82875;-66
2022/01/11 10:25:01;;;;;;;9.13;5.88;;;22.00;32.90;;;;;;6248404;28;83533;-67
2022/01/11 10:28:06;;;;;;;7.23;4.77;;;22.00;33.00;;;;;;6251828;27;83243;-67
2022/01/11 10:31:11;;;;;;;11.40;5.60;;;22.00;33.00;;;;;;6257510;27;83286;-67
2022/01/11 10:34:15;;;;;;;9.35;5.43;;;22.00;33.20;;;;;;6256588;27;83391;-66
2022/01/11 10:37:17;;;;;;;11.15;5.47;;;22.00;33.10;;;;;;6251729;27;82916;-67
2022/01/11 10:40:18;;;;;;;9.15;5.60;;;22.00;33.30;;;;;;6256780;27;82582;-65
2022/01/11 10:43:19;;;;;;;8.40;5.78;;;22.00;33.50;;;;;;6241227;27;83258;-66
2022/01/11 10:46:19;;;;;;;9.48;4.95;;;22.00;33.20;;;;;;6260476;27;81088;-66
2022/01/11 10:49:20;;;;;;;8.05;5.30;;;22.00;33.10;;;;;;6241101;28;83258;-65
2022/01/11 10:52:20;;;;;;;9.20;5.60;;;22.00;33.70;;;;;;6259874;27;80309;-66
2022/01/11 10:55:27;;;;;;;10.40;5.38;;;22.00;33.70;;;;;;6255430;27;82736;-66
2022/01/11 10:58:32;;;;;;;11.85;6.57;;;22.00;34.50;;;;;;6251673;27;83327;-66
2022/01/11 11:01:33;;;;;;;22.23;9.25;;;22.00;33.80;;;;;;6240508;28;83000;-67
2022/01/11 11:04:33;;;;;;;39.22;16.92;;;22.10;33.70;;;;;;6248269;28;83114;-66
2022/01/11 11:07:39;;;;;;;51.03;17.73;;;22.20;34.20;;;;;;6257067;27;83096;-65
2022/01/11 11:10:44;;;;;;;69.35;22.27;;;22.20;34.10;;;;;;6253804;28;85570;-69
2022/01/11 11:13:46;;;;;;;69.70;23.27;;;22.20;35.20;;;;;;6253820;27;84646;-68
2022/01/11 11:16:48;;;;;;;61.95;21.75;;;22.20;34.50;;;;;;6243596;28;84811;-68
2022/01/11 11:19:53;;;;;;;56.95;19.35;;;22.20;35.50;;;;;;6247597;27;84663;-65
2022/01/11 11:22:53;;;;;;;56.88;21.55;;;22.20;35.20;;;;;;6254845;27;84932;-66
2022/01/11 11:25:54;;;;;;;46.53;17.00;;;22.30;34.50;;;;;;6252459;27;85930;-66
2022/01/11 11:28:54;;;;;;;44.17;15.32;;;22.50;34.40;;;;;;6252702;27;83101;-65
2022/01/11 11:31:55;;;;;;;42.35;15.18;;;22.70;34.20;;;;;;6253219;27;83330;-64
2022/01/11 11:34:55;;;;;;;34.33;13.70;;;23.00;33.80;;;;;;6247137;27;84717;-65
2022/01/11 11:37:56;;;;;;;31.27;12.77;;;23.10;33.00;;;;;;6256016;27;83006;-64
2022/01/11 11:40:56;;;;;;;27.90;12.77;;;23.20;32.70;;;;;;6254567;27;83145;-66
2022/01/11 11:43:57;;;;;;;29.38;11.45;;;23.10;32.50;;;;;;6254280;27;84486;-65
2022/01/11 11:46:59;;;;;;;25.45;10.48;;;23.10;32.50;;;;;;6255602;27;83514;-65
2022/01/11 11:50:00;;;;;;;20.45;8.95;;;23.00;32.60;;;;;;6254057;27;83117;-64
2022/01/11 11:53:01;;;;;;;27.65;9.27;;;23.00;32.70;;;;;;6253440;27;83657;-64
2022/01/11 11:56:03;;;;;;;23.40;9.82;;;23.10;32.10;;;;;;6254750;27;80833;-64
2022/01/11 11:59:04;;;;;;;16.77;8.23;;;23.10;31.70;;;;;;6257648;27;81508;-65
2022/01/11 12:02:04;;;;;;;17.98;7.78;;;23.20;31.40;;;;;;6255023;27;81337;-64
2022/01/11 12:05:05;;;;;;;19.77;8.57;;;23.20;31.10;;;;;;6256951;27;82046;-65
2022/01/11 12:08:05;;;;;;;14.85;7.65;;;23.40;31.10;;;;;;6250511;27;80401;-65
2022/01/11 12:11:07;;;;;;;11.85;6.85;;;23.60;31.20;;;;;;6254883;27;80857;-64
2022/01/11 12:14:08;;;;;;;14.98;6.97;;;23.70;31.20;;;;;;6258272;27;81097;-64
2022/01/11 12:17:08;;;;;;;11.52;6.45;;;23.90;31.10;;;;;;6256277;27;80847;-64
2022/01/11 12:20:10;;;;;;;12.63;7.20;;;24.20;31.20;;;;;;6256635;27;80693;-64
2022/01/11 12:23:10;;;;;;;12.60;6.10;;;24.40;31.20;;;;;;6266924;27;80466;-67
2022/01/11 12:26:16;;;;;;;10.10;5.80;;;24.40;31.10;;;;;;6256337;27;80418;-67
2022/01/11 12:29:17;;;;;;;13.20;6.78;;;24.40;31.10;;;;;;6257201;27;80622;-66
2022/01/11 12:32:19;;;;;;;14.25;6.82;;;24.20;31.20;;;;;;6258041;27;81458;-64
2022/01/11 12:35:19;;;;;;;8.82;6.10;;;24.10;31.20;;;;;;6256991;27;81045;-65
2022/01/11 12:38:20;;;;;;;12.73;6.95;;;24.00;31.30;;;;;;6254068;27;80468;-65
2022/01/11 12:41:20;;;;;;;12.40;6.28;;;23.80;31.40;;;;;;6256558;27;80633;-64
2022/01/11 12:44:24;;;;;;;11.80;6.45;;;23.70;32.10;;;;;;6255150;27;80369;-67
2022/01/11 12:47:26;;;;;;;15.20;7.20;;;23.60;32.00;;;;;;6250649;27;80443;-68
2022/01/11 12:50:27;;;;;;;12.20;6.93;;;23.50;31.60;;;;;;6247083;27;81612;-64
2022/01/11 12:53:28;;;;;;;9.55;6.15;;;23.50;31.90;;;;;;6257162;27;81394;-68
2022/01/11 12:56:28;;;;;;;11.70;6.53;;;23.40;31.60;;;;;;6255894;27;81567;-70
2022/01/11 12:59:29;;;;;;;11.73;6.60;;;23.30;31.90;;;;;;6257101;27;81660;-67
2022/01/11 13:02:29;;;;;;;13.43;7.30;;;23.30;31.60;;;;;;6255684;28;81346;-67
2022/01/11 13:05:30;;;;;;;25.67;7.90;;;23.20;32.20;;;;;;6255708;27;81173;-68
2022/01/11 13:08:31;;;;;;;14.18;7.47;;;23.20;32.30;;;;;;6255455;28;81898;-68
2022/01/11 13:11:32;;;;;;;16.67;7.80;;;23.20;32.60;;;;;;6255912;28;80368;-67
2022/01/11 13:14:42;;;;;;;19.38;8.25;;;23.20;32.40;;;;;;6263858;27;80597;-68
2022/01/11 13:17:42;;;;;;;23.42;8.48;;;23.10;32.80;;;;;;6259850;27;80245;-69
2022/01/11 13:20:43;;;;;;;20.45;8.57;;;23.10;32.70;;;;;;6261111;27;80446;-67
2022/01/11 13:23:47;;;;;;;22.58;8.57;;;23.00;32.80;;;;;;6267226;27;80479;-70
2022/01/11 13:26:47;;;;;;;14.73;8.18;;;23.00;32.80;;;;;;6260781;27;81623;-68
2022/01/11 13:29:48;;;;;;;25.42;9.43;;;23.00;32.90;;;;;;6259568;27;80543;-68
2022/01/11 13:32:48;;;;;;;23.08;8.55;;;23.00;33.40;;;;;;6259345;27;81676;-68
2022/01/11 13:35:49;;;;;;;17.38;8.25;;;22.90;33.10;;;;;;6261260;27;80620;-68
2022/01/11 13:38:49;;;;;;;14.70;7.88;;;22.90;32.80;;;;;;6268407;27;81179;-69
2022/01/11 13:41:50;;;;;;;16.33;8.05;;;22.90;33.30;;;;;;6254165;27;80603;-68
2022/01/11 13:44:50;;;;;;;14.63;7.05;;;22.90;32.90;;;;;;6254683;27;80431;-69
2022/01/11 13:47:51;;;;;;;13.70;7.55;;;22.90;33.30;;;;;;6258111;27;80290;-68
2022/01/11 13:50:51;;;;;;;13.02;7.72;;;22.90;32.80;;;;;;6255569;27;82866;-67
2022/01/11 13:53:52;;;;;;;15.18;6.85;;;22.80;32.70;;;;;;6256408;27;80633;-68
2022/01/11 13:56:52;;;;;;;16.83;8.15;;;22.80;33.20;;;;;;6259343;27;80957;-68
2022/01/11 13:59:53;;;;;;;15.68;7.70;;;22.80;33.20;;;;;;6254359;27;80653;-68
2022/01/11 14:02:54;;;;;;;14.15;7.65;;;22.80;33.20;;;;;;6255504;27;82930;-68
2022/01/11 14:05:55;;;;;;;15.57;7.85;;;22.80;32.80;;;;;;6258778;27;81116;-68
2022/01/11 14:08:55;;;;;;;15.90;7.57;;;22.80;33.10;;;;;;6258481;27;80815;-68
2022/01/11 14:12:05;;;;;;;15.90;7.93;;;22.80;33.80;;;;;;6257129;27;80807;-67
2022/01/11 14:15:06;;;;;;;16.75;7.63;;;22.70;33.30;;;;;;6259744;27;82016;-68
2022/01/11 14:18:07;;;;;;;17.10;8.25;;;22.70;32.70;;;;;;6249779;27;80671;-67
2022/01/11 14:21:07;;;;;;;13.07;7.63;;;22.70;33.20;;;;;;6258764;27;80796;-68
2022/01/11 14:24:08;;;;;;;13.32;7.38;;;22.70;33.30;;;;;;6260216;27;81202;-67
2022/01/11 14:27:08;;;;;;;15.65;8.05;;;22.60;32.90;;;;;;6260128;27;80470;-66
2022/01/11 14:30:09;;;;;;;11.73;7.75;;;22.60;32.50;;;;;;6251414;27;81357;-68
2022/01/11 14:33:09;;;;;;;12.18;7.22;;;22.70;32.50;;;;;;6248565;27;83247;-68
2022/01/11 14:36:11;;;;;;;13.82;7.78;;;22.70;32.50;;;;;;6262808;27;80644;-68
2022/01/11 14:39:11;;;;;;;10.30;6.88;;;22.60;32.20;;;;;;6256209;27;84029;-67
2022/01/11 14:42:12;;;;;;;19.52;7.53;;;22.60;32.50;;;;;;6267237;27;80178;-66
2022/01/11 14:45:13;;;;;;;14.57;7.40;;;22.60;31.90;;;;;;6255891;27;80426;-68
2022/01/11 14:48:13;;;;;;;15.27;7.60;;;22.60;31.70;;;;;;6244813;28;80569;-69
2022/01/11 14:51:14;;;;;;;12.98;7.25;;;22.60;31.70;;;;;;6259951;27;81670;-67
2022/01/11 14:54:14;;;;;;;15.77;7.90;;;22.60;31.30;;;;;;6244208;27;80502;-65
2022/01/11 14:57:15;;;;;;;14.02;7.80;;;22.70;31.30;;;;;;6258577;28;80724;-66
2022/01/11 15:00:15;;;;;;;10.95;6.63;;;22.70;31.00;;;;;;6258631;27;80340;-68
2022/01/11 15:03:16;;;;;;;13.48;7.75;;;22.70;31.10;;;;;;6240888;27;80655;-67
2022/01/11 15:06:17;;;;;;;11.70;7.32;;;22.80;31.00;;;;;;6242463;27;80445;-66
2022/01/11 15:09:17;;;;;;;13.85;6.78;;;22.90;30.80;;;;;;6257989;27;80545;-67
2022/01/11 15:12:18;;;;;;;16.88;7.55;;;22.90;31.20;;;;;;6258867;27;80939;-65
2022/01/11 15:15:20;;;;;;;16.85;7.38;;;22.90;31.40;;;;;;6257794;27;81262;-66
2022/01/11 15:18:21;;;;;;;15.43;8.07;;;23.00;31.90;;;;;;6257334;27;81576;-64
2022/01/11 15:21:21;;;;;;;10.90;7.05;;;23.10;31.90;;;;;;6250302;27;82330;-64
2022/01/11 15:24:22;;;;;;;10.10;6.20;;;23.10;32.50;;;;;;6253672;27;80327;-64
2022/01/11 15:27:22;;;;;;;7.82;5.28;;;23.10;34.50;;;;;;6253706;27;82060;-64
2022/01/11 15:30:23;;;;;;;10.25;5.55;;;23.10;35.30;;;;;;6244400;28;83039;-67
2022/01/11 15:33:23;;;;;;;7.28;4.60;;;23.10;36.20;;;;;;6259950;27;80736;-64
2022/01/11 15:36:24;;;;;;;9.15;4.85;;;23.10;36.90;;;;;;6255210;27;81895;-64
2022/01/11 15:39:24;;;;;;;5.75;4.13;;;23.10;37.70;;;;;;6255774;27;80451;-66